»·PEaware :: AAL554 KDEN-KABQ

AAL554 :: KDEN-KABQ

FLIGHT INFORMATION

Flight Status: Arrived
Operator:
American Airlines
More flights by this operator :: More flights under this callsign
Pilot: Shawn G. (7208)
Aircraft: AIRBUS A320
(A320)
More flights by this aircraft type
Origin: KDEN Denver Intl
United States
Destination: KABQ Albuquerque Intl Sunport
United States
More flights between these airports :: More routes between these airports
Route: SPAZZ3 ZAPAA DATME SNDIA3
File this flight plan on PilotEdge
Remarks:
Altitude:
(Current/Filed)
34,000ft
Speed:
(Current/Filed)
444kts
Departed: 22-Apr-18 09:11 PM
Arrived: 22-Apr-18 10:06 PM
Distance/Time
Traveled:
303nm/0:55
Distance/Time
To Go:
Arrived

Flight Plot

Page will automatically refresh every two minutes.


Map Options




Map Legend


Flown Route
Filed Route
Departure Airport
Arrival Airport
Navaid (VOR, NDB)
Fix

Horizontal Profiles

Position Reports

Time Latitude Longitude Heading Altitude Ground
Speed
22-Apr-18 20:44 39.854462 -104.670713 190 5440ft 0kts
22-Apr-18 20:45 39.854462 -104.670713 190 5440ft 0kts
22-Apr-18 20:46 39.854462 -104.670713 190 5440ft 0kts
22-Apr-18 20:47 39.854462 -104.670713 190 5440ft 0kts
22-Apr-18 20:48 39.854462 -104.670713 190 5440ft 0kts
22-Apr-18 20:49 39.854462 -104.670713 190 5440ft 0kts
22-Apr-18 20:50 39.854462 -104.670713 190 5440ft 0kts
22-Apr-18 20:51 39.854462 -104.670713 190 5440ft 0kts
22-Apr-18 20:52 39.854462 -104.670713 190 5440ft 0kts
22-Apr-18 20:53 39.854462 -104.670713 190 5440ft 0kts
22-Apr-18 20:54 39.854462 -104.670713 190 5440ft 0kts
22-Apr-18 20:55 39.854462 -104.670713 190 5440ft 0kts
22-Apr-18 20:56 39.854462 -104.670713 190 5440ft 0kts
22-Apr-18 20:57 39.854462 -104.670713 190 5440ft 0kts
22-Apr-18 20:58 39.854462 -104.670713 190 5440ft 0kts
22-Apr-18 20:59 39.854462 -104.670713 190 5440ft 0kts
22-Apr-18 21:00 39.854462 -104.670713 190 5440ft 0kts
22-Apr-18 21:01 39.854463 -104.670713 190 5440ft 0kts
22-Apr-18 21:02 39.854805 -104.670627 192 5440ft 2kts
22-Apr-18 21:03 39.855152 -104.670318 231 5440ft 0kts
22-Apr-18 21:04 39.855152 -104.670318 231 5440ft 0kts
22-Apr-18 21:05 39.855074 -104.674764 269 5440ft 22kts
22-Apr-18 21:06 39.855952 -104.680802 270 5440ft 11kts
22-Apr-18 21:07 39.853725 -104.683995 181 5440ft 17kts
22-Apr-18 21:08 39.847907 -104.684057 181 5440ft 25kts
22-Apr-18 21:09 39.841818 -104.684135 180 5440ft 2kts
22-Apr-18 21:10 39.840751 -104.693633 269 5440ft 118kts
22-Apr-18 21:11 39.840470 -104.759008 249 7863ft 215kts
22-Apr-18 21:12 39.818504 -104.846466 249 9839ft 287kts
22-Apr-18 21:13 39.760997 -104.920430 190 11532ft 328kts
22-Apr-18 21:14 39.669496 -104.916792 168 14314ft 345kts
22-Apr-18 21:15 39.578608 -104.872984 150 16675ft 364kts
22-Apr-18 21:16 39.486804 -104.811278 157 18834ft 384kts
22-Apr-18 21:17 39.386989 -104.761346 166 20962ft 395kts
22-Apr-18 21:18 39.277637 -104.751356 178 23097ft 399kts
22-Apr-18 21:19 39.165876 -104.744467 178 24831ft 409kts
22-Apr-18 21:20 39.054641 -104.739964 188 26330ft 418kts
22-Apr-18 21:21 38.948278 -104.796744 207 27720ft 424kts
22-Apr-18 21:22 38.846038 -104.860219 207 28971ft 433kts
22-Apr-18 21:23 38.737743 -104.928222 210 30165ft 440kts
22-Apr-18 21:24 38.629788 -105.003096 210 31459ft 442kts
22-Apr-18 21:25 38.522786 -105.076994 211 32893ft 439kts
22-Apr-18 21:26 38.416539 -105.150145 211 34177ft 436kts
22-Apr-18 21:27 38.309632 -105.223530 211 34306ft 444kts
22-Apr-18 21:28 38.200482 -105.298173 211 34307ft 447kts
22-Apr-18 21:29 38.091598 -105.372368 211 34305ft 446kts
22-Apr-18 21:30 37.982665 -105.446356 211 34304ft 446kts
22-Apr-18 21:31 37.873717 -105.520102 211 34303ft 446kts
22-Apr-18 21:32 37.765061 -105.593404 211 34432ft 444kts
22-Apr-18 21:33 37.651981 -105.655698 202 34229ft 449kts
22-Apr-18 21:34 37.536012 -105.710367 203 34247ft 449kts
22-Apr-18 21:35 37.419034 -105.765352 203 34255ft 450kts
22-Apr-18 21:36 37.302332 -105.820021 204 34267ft 449kts
22-Apr-18 21:37 37.185764 -105.874448 204 34256ft 448kts
22-Apr-18 21:38 37.069498 -105.928556 205 34245ft 447kts
22-Apr-18 21:39 36.953312 -105.982453 205 34276ft 447kts
22-Apr-18 21:40 36.849324 -106.030540 205 34245ft 447kts
22-Apr-18 21:41 36.735162 -106.083165 205 34283ft 447kts
22-Apr-18 21:42 36.618826 -106.136175 204 34279ft 447kts
22-Apr-18 21:43 36.502226 -106.188106 204 34121ft 448kts
22-Apr-18 21:44 36.385025 -106.240212 203 31412ft 453kts
22-Apr-18 21:45 36.266721 -106.292471 202 28630ft 452kts
22-Apr-18 21:46 36.150406 -106.343600 202 26405ft 437kts
22-Apr-18 21:47 36.038270 -106.392273 201 24223ft 421kts
22-Apr-18 21:48 35.930362 -106.438741 201 22395ft 397kts
22-Apr-18 21:49 35.831683 -106.479613 200 20945ft 371kts
22-Apr-18 21:50 35.734915 -106.519063 200 18951ft 362kts
22-Apr-18 21:51 35.640989 -106.557286 200 17019ft 352kts
22-Apr-18 21:52 35.551435 -106.599311 206 15188ft 339kts
22-Apr-18 21:53 35.469536 -106.643370 204 14182ft 306kts
22-Apr-18 21:54 35.393366 -106.684419 203 12643ft 298kts
22-Apr-18 21:55 35.318536 -106.724652 203 11145ft 289kts
22-Apr-18 21:56 35.247516 -106.766017 206 9830ft 277kts
22-Apr-18 21:57 35.182417 -106.805970 206 9185ft 245kts
22-Apr-18 21:58 35.120447 -106.822885 176 9003ft 230kts
22-Apr-18 21:59 35.068065 -106.818412 176 8651ft 226kts
22-Apr-18 22:00 35.003671 -106.782908 146 8019ft 212kts
22-Apr-18 22:01 34.967047 -106.733348 102 7321ft 193kts
22-Apr-18 22:02 34.981127 -106.679834 45 6420ft 152kts
22-Apr-18 22:03 35.010912 -106.644270 47 5644ft 150kts
22-Apr-18 22:04 35.034947 -106.615174 44 5363ft 63kts
22-Apr-18 22:05 35.040646 -106.610850 5 5363ft 10kts
22-Apr-18 22:06 35.045808 -106.611276 268 5363ft 18kts
22-Apr-18 22:07 35.045565 -106.616369 270 5363ft 18kts
22-Apr-18 22:08 35.046777 -106.619567 3 5363ft 9kts
22-Apr-18 22:09 35.048236 -106.619286 196 5363ft 1kts
22-Apr-18 22:10 35.047482 -106.618814 109 5363ft 0kts
22-Apr-18 22:11 35.047482 -106.618814 109 5363ft 0kts

Navigation Log

Ident Type
1. KDEN Airport
2. JEPPC Fix
3. SPAZZ Fix
4. FRNKE Fix
5. ZAPAA Fix
6. DATME Fix
7. EBIDE Fix
8. ESPAN Fix
9. DETEC Fix
10. SNDIA Fix
11. VLCNO Fix
12. ASIDE Fix
13. CRSTN Fix
14. KABQ Airport